Time;durP1;ratioP1;P1;durP2;ratioP2;P2;SDS_P1;SDS_P2;PMS_P1;PMS_P2;Temp;Humidity;BMP_temperature;BMP_pressure;BME280_temperature;BME280_humidity;BME280_pressure;Samples;Min_cycle;Max_cycle;Signal;HPM_P1;HPM_P2
2022/10/07 00:02:48;;;;;;;5.33;4.93;;;9.50;1.00;;;;;;6342868;27;20700;-54
2022/10/07 00:06:02;;;;;;;5.20;4.90;;;9.50;1.00;;;;;;6330756;27;20236;-54
2022/10/07 00:09:04;;;;;;;5.20;4.90;;;9.40;1.00;;;;;;6312403;28;20316;-54
2022/10/07 00:12:07;;;;;;;5.93;5.40;;;9.40;1.00;;;;;;6313046;28;20315;-54
2022/10/07 00:15:10;;;;;;;6.43;5.93;;;9.40;1.00;;;;;;6314208;28;20662;-54
2022/10/07 00:18:13;;;;;;;5.90;5.47;;;9.40;1.00;;;;;;6322982;28;20606;-53
2022/10/07 00:21:19;;;;;;;5.73;5.40;;;9.30;1.00;;;;;;6336394;27;20281;-54
2022/10/07 00:24:22;;;;;;;5.70;5.20;;;9.30;1.00;;;;;;6335139;27;20239;-54
2022/10/07 00:27:25;;;;;;;7.27;5.63;;;9.30;1.00;;;;;;6326021;28;20221;-54
2022/10/07 00:30:27;;;;;;;5.80;5.40;;;9.20;1.00;;;;;;6332965;27;20228;-55
2022/10/07 00:33:34;;;;;;;6.23;5.83;;;9.20;1.00;;;;;;6336653;27;20280;-54
2022/10/07 00:36:38;;;;;;;7.60;6.40;;;9.20;1.00;;;;;;6331879;27;20238;-53
2022/10/07 00:39:41;;;;;;;5.80;5.50;;;9.20;1.00;;;;;;6336500;27;20246;-54
2022/10/07 00:42:43;;;;;;;6.13;5.53;;;9.20;1.00;;;;;;6336890;27;20232;-54
2022/10/07 00:45:46;;;;;;;6.00;5.50;;;9.20;1.00;;;;;;6313342;28;20482;-54
2022/10/07 00:48:50;;;;;;;6.13;5.60;;;9.20;1.00;;;;;;6310313;28;20233;-54
2022/10/07 00:51:54;;;;;;;5.77;5.27;;;9.20;1.00;;;;;;6319193;27;20244;-54
2022/10/07 00:54:59;;;;;;;5.60;5.30;;;9.20;1.00;;;;;;6335926;28;20236;-54
2022/10/07 00:58:06;;;;;;;5.53;5.13;;;9.20;1.00;;;;;;6316839;28;20253;-56
2022/10/07 01:01:10;;;;;;;4.80;4.60;;;9.20;1.00;;;;;;6311711;28;20250;-54
2022/10/07 01:04:16;;;;;;;5.17;4.90;;;9.20;1.00;;;;;;6325762;27;20252;-54
2022/10/07 01:07:21;;;;;;;5.13;4.77;;;9.20;1.00;;;;;;6319460;27;20224;-53
2022/10/07 01:10:29;;;;;;;5.33;4.83;;;9.20;1.00;;;;;;6336637;28;20236;-53
2022/10/07 01:13:36;;;;;;;5.67;5.37;;;9.20;1.00;;;;;;6334701;28;20798;-53
2022/10/07 01:16:46;;;;;;;6.20;5.80;;;9.10;1.00;;;;;;6325239;27;20236;-54
2022/10/07 01:20:22;;;;;;;5.90;5.40;;;9.10;1.00;;;;;;6340618;27;20238;-54
2022/10/07 01:23:52;;;;;;;5.63;5.33;;;9.00;1.00;;;;;;6326798;27;20232;-53
2022/10/07 01:27:01;;;;;;;6.20;5.80;;;9.00;1.00;;;;;;6309501;28;20400;-52
2022/10/07 01:30:06;;;;;;;6.23;5.63;;;9.00;1.00;;;;;;6302042;28;20239;-54
2022/10/07 01:33:14;;;;;;;7.27;6.67;;;8.90;1.00;;;;;;6315825;27;20757;-54
2022/10/07 01:36:22;;;;;;;7.10;6.50;;;8.90;1.00;;;;;;6334960;27;20239;-53
2022/10/07 01:39:30;;;;;;;6.03;5.57;;;8.90;1.00;;;;;;6328096;28;20233;-54
2022/10/07 01:42:34;;;;;;;6.27;5.80;;;8.90;1.00;;;;;;6308988;28;20240;-54
2022/10/07 01:45:40;;;;;;;6.17;5.77;;;8.90;1.00;;;;;;6315742;28;20466;-57
2022/10/07 01:48:44;;;;;;;6.63;6.07;;;8.80;1.00;;;;;;6329216;28;20237;-53
2022/10/07 01:52:00;;;;;;;5.87;5.37;;;9.00;1.00;;;;;;6348511;27;20632;-54
2022/10/07 01:55:27;;;;;;;5.93;5.50;;;8.80;1.00;;;;;;6326155;27;20240;-54
2022/10/07 01:58:49;;;;;;;6.60;6.20;;;8.80;1.00;;;;;;6333456;27;20338;-53
2022/10/07 02:02:02;;;;;;;6.20;5.70;;;8.70;1.00;;;;;;6335262;27;20247;-52
2022/10/07 02:05:13;;;;;;;6.33;5.93;;;8.70;1.00;;;;;;6334760;27;20287;-53
2022/10/07 02:08:27;;;;;;;6.27;5.87;;;8.70;1.00;;;;;;6335214;27;20243;-53
2022/10/07 02:11:36;;;;;;;7.03;6.43;;;8.70;1.00;;;;;;6335847;27;20490;-54
2022/10/07 02:14:45;;;;;;;6.90;6.40;;;8.60;1.00;;;;;;6315028;27;20282;-57
2022/10/07 02:17:52;;;;;;;7.13;6.33;;;8.60;1.00;;;;;;6337272;27;20232;-54
2022/10/07 02:20:55;;;;;;;6.40;5.63;;;8.50;1.00;;;;;;6340856;27;20283;-53
2022/10/07 02:24:00;;;;;;;6.43;5.83;;;8.60;1.00;;;;;;6329895;28;20747;-54
2022/10/07 02:27:07;;;;;;;5.67;5.37;;;8.60;1.00;;;;;;6340775;27;20239;-54
2022/10/07 02:30:14;;;;;;;5.37;5.17;;;8.60;1.00;;;;;;6340823;28;20240;-52
2022/10/07 02:33:19;;;;;;;6.50;5.90;;;8.50;1.00;;;;;;6333873;27;20607;-53
2022/10/07 02:36:27;;;;;;;6.67;6.17;;;8.50;1.00;;;;;;6331789;27;20235;-54
2022/10/07 02:39:30;;;;;;;6.07;5.47;;;8.50;1.00;;;;;;6338388;27;20236;-53
2022/10/07 02:42:39;;;;;;;6.63;6.00;;;8.50;1.00;;;;;;6334933;27;20232;-53
2022/10/07 02:45:51;;;;;;;5.80;5.53;;;8.50;1.00;;;;;;6328861;27;20489;-54
2022/10/07 02:48:57;;;;;;;6.93;6.30;;;8.30;1.00;;;;;;6336768;27;20615;-53
2022/10/07 02:52:05;;;;;;;7.57;6.20;;;8.50;1.00;;;;;;6328568;27;20240;-53
2022/10/07 02:55:13;;;;;;;6.57;5.90;;;8.50;1.00;;;;;;6337285;27;20240;-53
2022/10/07 02:58:17;;;;;;;7.37;6.77;;;8.40;1.00;;;;;;6327175;27;20398;-54
2022/10/07 03:01:26;;;;;;;7.07;6.57;;;8.40;1.00;;;;;;6312265;28;20282;-54
2022/10/07 03:04:29;;;;;;;6.90;6.27;;;8.50;1.00;;;;;;6329509;27;20315;-54
2022/10/07 03:07:32;;;;;;;7.93;6.73;;;8.50;1.00;;;;;;6332777;27;20587;-54
2022/10/07 03:10:35;;;;;;;6.53;5.83;;;8.70;1.00;;;;;;6337092;27;20239;-54
2022/10/07 03:13:38;;;;;;;6.13;5.67;;;8.50;1.00;;;;;;6338029;28;20239;-54
2022/10/07 03:16:42;;;;;;;6.37;5.83;;;8.50;1.00;;;;;;6328129;27;20247;-56
2022/10/07 03:19:45;;;;;;;7.80;5.57;;;8.50;1.00;;;;;;6342171;27;20719;-54
2022/10/07 03:22:48;;;;;;;6.50;6.07;;;8.50;1.00;;;;;;6337527;27;20252;-54
2022/10/07 03:25:51;;;;;;;6.53;5.60;;;8.50;1.00;;;;;;6334355;27;20243;-53
2022/10/07 03:28:54;;;;;;;6.37;5.77;;;8.40;1.00;;;;;;6334814;27;20720;-54
2022/10/07 03:31:58;;;;;;;5.50;5.13;;;8.40;1.00;;;;;;6321217;28;20323;-54
2022/10/07 03:35:01;;;;;;;5.53;5.23;;;8.40;1.00;;;;;;6335491;27;20232;-53
2022/10/07 03:38:05;;;;;;;5.63;5.43;;;8.50;1.00;;;;;;6337374;27;20243;-54
2022/10/07 03:41:08;;;;;;;5.93;5.53;;;8.50;1.00;;;;;;6334866;27;20635;-54
2022/10/07 03:44:11;;;;;;;6.30;5.90;;;8.30;1.00;;;;;;6340594;27;20565;-53
2022/10/07 03:47:15;;;;;;;6.70;5.97;;;8.50;1.00;;;;;;6338439;27;20235;-53
2022/10/07 03:50:18;;;;;;;8.20;6.10;;;8.30;1.00;;;;;;6334067;27;20729;-53
2022/10/07 03:53:21;;;;;;;6.57;6.07;;;8.30;1.00;;;;;;6341583;27;20724;-58
2022/10/07 03:56:24;;;;;;;6.63;6.20;;;8.30;1.00;;;;;;6335052;27;20232;-52
2022/10/07 03:59:27;;;;;;;5.90;5.57;;;8.20;1.00;;;;;;6336958;27;20232;-52
2022/10/07 04:02:32;;;;;;;5.83;5.40;;;8.20;1.00;;;;;;6328812;27;20712;-53
2022/10/07 04:05:36;;;;;;;5.93;5.63;;;8.30;1.00;;;;;;6333156;27;20314;-52
2022/10/07 04:08:39;;;;;;;7.40;6.87;;;8.20;1.00;;;;;;6334574;27;20227;-53
2022/10/07 04:11:42;;;;;;;6.67;6.20;;;8.20;1.00;;;;;;6340684;27;20232;-53
2022/10/07 04:14:45;;;;;;;6.77;6.20;;;8.20;1.00;;;;;;6342856;27;20255;-53
2022/10/07 04:17:55;;;;;;;7.07;6.53;;;8.20;1.00;;;;;;6337644;28;20243;-53
2022/10/07 04:20:59;;;;;;;6.40;5.97;;;8.10;1.00;;;;;;6335378;27;20745;-54
2022/10/07 04:24:02;;;;;;;7.93;6.67;;;8.10;1.00;;;;;;6330158;27;20224;-53
2022/10/07 04:27:05;;;;;;;6.63;6.27;;;8.10;1.00;;;;;;6323823;28;20832;-53
2022/10/07 04:30:09;;;;;;;6.00;5.60;;;8.20;1.00;;;;;;6337163;27;20231;-52
2022/10/07 04:33:13;;;;;;;6.07;5.67;;;8.40;1.00;;;;;;6329491;27;20253;-53
2022/10/07 04:36:15;;;;;;;6.53;6.10;;;8.00;1.00;;;;;;6324887;28;20237;-53
2022/10/07 04:39:18;;;;;;;8.23;7.57;;;8.00;1.00;;;;;;6333525;27;20488;-53
2022/10/07 04:45:42;;;;;;;7.20;6.60;;;7.90;1.00;;;;;;6330889;27;20239;-54
2022/10/07 04:48:46;;;;;;;7.87;7.17;;;7.90;1.00;;;;;;6331697;27;20712;-54
2022/10/07 04:51:49;;;;;;;7.80;7.10;;;7.90;1.00;;;;;;6333473;27;20242;-54
2022/10/07 04:54:51;;;;;;;7.93;7.23;;;7.90;1.00;;;;;;6337604;27;20247;-53
2022/10/07 04:57:54;;;;;;;7.50;6.90;;;7.80;1.00;;;;;;6326438;27;20612;-55
2022/10/07 05:00:58;;;;;;;7.23;6.73;;;7.90;1.00;;;;;;6332773;27;20247;-53
2022/10/07 05:04:03;;;;;;;7.57;7.00;;;7.80;1.00;;;;;;6316483;27;20247;-52
2022/10/07 05:07:07;;;;;;;8.80;8.07;;;7.80;1.00;;;;;;6326051;27;20467;-53
2022/10/07 05:10:10;;;;;;;8.20;7.07;;;7.90;1.00;;;;;;6332976;27;20228;-53
2022/10/07 05:13:16;;;;;;;9.27;7.83;;;7.70;1.00;;;;;;6334775;28;20306;-55
2022/10/07 05:16:19;;;;;;;8.40;7.50;;;7.90;1.00;;;;;;6324962;28;20751;-54
2022/10/07 05:19:23;;;;;;;8.27;7.67;;;7.80;1.00;;;;;;6325743;27;20431;-53
2022/10/07 05:22:26;;;;;;;15.00;9.77;;;7.80;1.00;;;;;;6333559;27;20263;-58
2022/10/07 05:25:29;;;;;;;13.23;8.63;;;7.80;1.00;;;;;;6327083;27;20231;-53
2022/10/07 05:28:31;;;;;;;8.00;7.40;;;7.80;1.00;;;;;;6317074;28;20255;-54
2022/10/07 05:31:34;;;;;;;8.00;7.23;;;7.80;1.00;;;;;;6322072;28;20724;-53
2022/10/07 05:34:39;;;;;;;7.50;6.70;;;7.80;1.00;;;;;;6325311;27;20238;-51
2022/10/07 05:37:41;;;;;;;9.33;7.70;;;7.70;1.00;;;;;;6328501;28;20234;-53
2022/10/07 05:40:57;;;;;;;8.53;7.13;;;7.80;1.00;;;;;;6329901;27;20292;-54
2022/10/07 05:44:00;;;;;;;11.30;7.50;;;7.80;1.00;;;;;;6330873;28;20232;-53
2022/10/07 05:47:03;;;;;;;7.83;6.90;;;8.00;1.00;;;;;;6331277;27;20231;-54
2022/10/07 05:50:08;;;;;;;6.57;6.07;;;7.90;1.00;;;;;;6331891;27;20270;-53
2022/10/07 05:53:11;;;;;;;6.17;5.87;;;7.90;1.00;;;;;;6333886;27;20259;-53
2022/10/07 05:56:16;;;;;;;6.73;6.10;;;7.80;1.00;;;;;;6329393;27;20242;-54
2022/10/07 05:59:19;;;;;;;6.40;5.90;;;8.00;1.00;;;;;;6333692;27;20252;-54
2022/10/07 06:02:22;;;;;;;8.30;6.90;;;8.10;1.00;;;;;;6333007;27;20242;-54
2022/10/07 06:05:26;;;;;;;8.63;7.70;;;8.10;1.00;;;;;;6329481;27;20506;-53
2022/10/07 06:08:29;;;;;;;12.40;8.87;;;8.20;1.00;;;;;;6335515;27;20389;-54
2022/10/07 06:14:52;;;;;;;12.77;8.57;;;8.20;1.00;;;;;;6314336;27;20243;-52
2022/10/07 06:17:55;;;;;;;7.80;7.20;;;8.30;1.00;;;;;;6335873;27;20244;-53
2022/10/07 06:21:00;;;;;;;13.93;8.70;;;8.60;1.00;;;;;;6338432;27;20359;-54
2022/10/07 06:24:03;;;;;;;15.90;7.97;;;8.50;1.00;;;;;;6327642;27;20236;-53
2022/10/07 06:27:07;;;;;;;11.30;8.00;;;8.50;1.00;;;;;;6336672;27;20559;-53
2022/10/07 06:30:11;;;;;;;8.43;7.63;;;8.50;1.00;;;;;;6336817;27;20458;-53
2022/10/07 06:33:14;;;;;;;10.47;8.23;;;8.60;1.00;;;;;;6334674;27;20619;-54
2022/10/07 06:36:19;;;;;;;10.33;8.73;;;8.70;1.00;;;;;;6330034;27;20514;-54
2022/10/07 06:39:22;;;;;;;10.27;7.70;;;8.80;1.00;;;;;;6335490;27;20232;-54
2022/10/07 06:42:24;;;;;;;11.00;8.13;;;8.90;1.00;;;;;;6333550;27;20228;-54
2022/10/07 06:45:30;;;;;;;11.33;7.90;;;9.00;1.00;;;;;;6331738;27;20232;-52
2022/10/07 06:48:34;;;;;;;10.47;7.83;;;9.10;1.00;;;;;;6331188;27;20239;-53
2022/10/07 06:51:38;;;;;;;10.13;8.60;;;9.10;1.00;;;;;;6337245;27;20572;-53
2022/10/07 06:54:41;;;;;;;8.57;7.80;;;9.10;1.00;;;;;;6334603;27;20615;-53
2022/10/07 06:57:44;;;;;;;8.50;7.63;;;9.20;1.00;;;;;;6335322;27;20228;-53
2022/10/07 07:00:49;;;;;;;8.80;7.90;;;9.30;1.00;;;;;;6335170;27;20231;-53
2022/10/07 07:03:52;;;;;;;8.63;7.80;;;9.40;1.00;;;;;;6332817;27;20617;-53
2022/10/07 07:06:57;;;;;;;14.27;8.20;;;9.50;1.00;;;;;;6317485;27;20242;-51
2022/10/07 07:10:00;;;;;;;9.10;8.20;;;9.60;1.00;;;;;;6321395;27;20244;-52
2022/10/07 07:13:04;;;;;;;13.43;8.27;;;9.60;1.00;;;;;;6331477;27;20236;-53
2022/10/07 07:16:08;;;;;;;8.50;7.40;;;9.60;1.00;;;;;;6331063;27;20240;-52
2022/10/07 07:19:13;;;;;;;13.17;7.97;;;9.70;1.00;;;;;;6333418;27;20736;-52
2022/10/07 07:22:17;;;;;;;9.50;8.30;;;9.80;1.00;;;;;;6332655;27;20241;-54
2022/10/07 07:25:20;;;;;;;13.27;8.77;;;9.90;1.00;;;;;;6333242;27;20243;-53
2022/10/07 07:28:23;;;;;;;12.73;8.37;;;10.00;1.00;;;;;;6328620;27;20321;-54
2022/10/07 07:31:27;;;;;;;10.93;8.03;;;10.20;1.00;;;;;;6340365;27;20298;-53
2022/10/07 07:34:32;;;;;;;12.23;8.07;;;10.20;1.00;;;;;;6328857;27;20617;-54
2022/10/07 07:37:36;;;;;;;8.37;7.57;;;10.30;1.00;;;;;;6336214;27;20228;-53
2022/10/07 07:40:39;;;;;;;12.60;8.10;;;10.40;1.00;;;;;;6330057;27;20705;-53
2022/10/07 07:43:42;;;;;;;11.50;9.30;;;10.50;1.00;;;;;;6333019;27;20228;-52
2022/10/07 07:46:48;;;;;;;9.50;8.20;;;10.60;1.00;;;;;;6332519;27;20243;-54
2022/10/07 07:49:51;;;;;;;8.20;7.50;;;10.70;1.00;;;;;;6338671;27;20692;-51
2022/10/07 07:52:55;;;;;;;8.73;7.93;;;10.80;1.00;;;;;;6326795;27;20600;-54
2022/10/07 07:56:01;;;;;;;8.10;7.40;;;10.90;1.00;;;;;;6334232;27;20307;-54
2022/10/07 07:59:05;;;;;;;8.37;7.20;;;11.00;1.00;;;;;;6328295;28;20232;-52
2022/10/07 08:02:08;;;;;;;11.53;7.90;;;11.10;1.00;;;;;;6331993;27;20304;-52
2022/10/07 08:05:10;;;;;;;11.17;7.97;;;11.30;1.00;;;;;;6334529;27;20262;-52
2022/10/07 08:08:15;;;;;;;8.57;7.60;;;11.50;1.00;;;;;;6334441;27;20243;-54
2022/10/07 08:11:20;;;;;;;8.80;6.87;;;11.60;1.00;;;;;;6324974;27;20232;-53
2022/10/07 08:14:23;;;;;;;10.37;6.93;;;11.70;1.00;;;;;;6333766;27;20257;-52
2022/10/07 08:17:26;;;;;;;9.80;7.50;;;11.90;1.00;;;;;;6337713;27;20228;-53
2022/10/07 08:20:29;;;;;;;7.23;6.50;;;12.00;1.00;;;;;;6327150;27;20246;-52
2022/10/07 08:23:34;;;;;;;7.17;6.47;;;12.20;1.00;;;;;;6330762;27;20232;-54
2022/10/07 08:26:37;;;;;;;10.20;6.10;;;12.30;1.00;;;;;;6332100;27;20247;-54
2022/10/07 08:29:40;;;;;;;10.87;6.27;;;12.50;1.00;;;;;;6324939;27;20474;-53
2022/10/07 08:32:43;;;;;;;6.70;6.00;;;12.60;1.00;;;;;;6333282;27;20232;-54
2022/10/07 08:35:49;;;;;;;8.30;6.23;;;12.70;1.00;;;;;;6327464;27;20228;-54
2022/10/07 08:38:54;;;;;;;8.23;6.47;;;12.90;1.00;;;;;;6329072;27;20259;-54
2022/10/07 08:42:07;;;;;;;6.33;5.33;;;13.00;1.00;;;;;;6333601;27;20240;-52
2022/10/07 08:45:15;;;;;;;5.50;5.10;;;13.20;1.00;;;;;;6325803;27;20652;-53
2022/10/07 08:48:28;;;;;;;6.50;5.33;;;13.30;1.00;;;;;;6329259;27;20232;-54
2022/10/07 08:51:37;;;;;;;14.00;6.20;;;13.50;1.00;;;;;;6338287;27;20280;-54
2022/10/07 08:54:41;;;;;;;6.03;5.53;;;13.70;1.00;;;;;;6319283;28;20239;-53
2022/10/07 08:58:03;;;;;;;7.60;5.57;;;13.80;1.00;;;;;;6325719;27;20235;-54
2022/10/07 09:01:16;;;;;;;11.23;5.57;;;13.90;1.00;;;;;;6333116;27;20236;-53
2022/10/07 09:04:29;;;;;;;9.10;6.13;;;14.10;1.00;;;;;;6325126;27;20608;-54
2022/10/07 09:07:35;;;;;;;8.70;5.40;;;14.20;1.00;;;;;;6334170;27;20224;-53
2022/10/07 09:10:44;;;;;;;8.37;5.40;;;14.40;1.00;;;;;;6334403;27;20232;-54
2022/10/07 09:13:50;;;;;;;6.50;4.97;;;14.40;1.00;;;;;;6332093;27;20639;-53
2022/10/07 09:16:56;;;;;;;9.27;4.70;;;14.50;1.00;;;;;;6330431;27;20228;-54
2022/10/07 09:20:03;;;;;;;10.73;4.70;;;14.60;1.00;;;;;;6335642;27;20235;-54
2022/10/07 09:23:10;;;;;;;7.47;4.67;;;14.70;1.00;;;;;;6314644;27;20615;-53
2022/10/07 09:26:16;;;;;;;6.43;5.20;;;14.70;1.00;;;;;;6333757;27;20517;-54
2022/10/07 09:29:22;;;;;;;9.00;4.70;;;14.80;1.00;;;;;;6335615;27;20236;-55
2022/10/07 09:32:24;;;;;;;5.00;4.57;;;14.90;1.00;;;;;;6336100;27;20240;-54
2022/10/07 09:35:31;;;;;;;4.60;4.20;;;14.90;1.00;;;;;;6337459;27;20247;-54
2022/10/07 09:38:36;;;;;;;4.60;4.20;;;14.90;1.00;;;;;;6332465;27;20834;-54
2022/10/07 09:41:42;;;;;;;5.57;4.10;;;14.90;1.00;;;;;;6330934;27;20231;-55
2022/10/07 09:44:50;;;;;;;5.77;4.40;;;15.00;1.00;;;;;;6327530;27;20224;-51
2022/10/07 09:47:56;;;;;;;8.13;4.67;;;15.20;1.00;;;;;;6335716;27;20239;-53
2022/10/07 09:51:13;;;;;;;5.00;4.47;;;15.30;1.00;;;;;;6339700;27;20244;-52
2022/10/07 09:54:19;;;;;;;5.40;4.20;;;15.40;1.00;;;;;;6322675;27;20813;-52
2022/10/07 09:57:32;;;;;;;6.07;4.23;;;15.60;1.00;;;;;;6330124;27;20238;-53
2022/10/07 10:00:42;;;;;;;6.20;4.40;;;15.80;1.00;;;;;;6333613;27;20220;-53
2022/10/07 10:03:45;;;;;;;6.90;4.17;;;16.00;1.00;;;;;;6333987;27;20230;-54
2022/10/07 10:06:50;;;;;;;7.23;4.27;;;16.20;1.00;;;;;;6344171;27;20235;-54
2022/10/07 10:09:55;;;;;;;5.50;4.93;;;16.20;1.00;;;;;;6334739;27;20259;-54
2022/10/07 10:13:01;;;;;;;4.57;4.17;;;16.30;1.00;;;;;;6336412;27;20247;-53
2022/10/07 10:16:06;;;;;;;7.80;3.57;;;16.40;1.00;;;;;;6331600;27;20236;-53
2022/10/07 10:19:23;;;;;;;4.03;3.73;;;16.50;1.00;;;;;;6334291;27;20715;-54
2022/10/07 10:22:29;;;;;;;8.50;3.80;;;16.70;1.00;;;;;;6342768;27;20228;-54
2022/10/07 10:29:34;;;;;;;5.47;3.30;;;17.10;1.00;;;;;;6324879;27;20889;-55
2022/10/07 10:33:06;;;;;;;4.50;3.33;;;17.10;1.00;;;;;;6327295;27;20228;-53
2022/10/07 10:36:19;;;;;;;7.87;3.60;;;17.20;1.00;;;;;;6330184;27;20248;-53
2022/10/07 10:39:33;;;;;;;6.07;3.40;;;17.40;1.00;;;;;;6328923;27;20470;-53
2022/10/07 10:42:44;;;;;;;3.20;3.00;;;17.40;1.00;;;;;;6335688;27;20228;-53
2022/10/07 10:46:00;;;;;;;4.17;3.47;;;17.50;1.00;;;;;;6334576;27;20314;-54
2022/10/07 10:49:10;;;;;;;5.20;3.50;;;17.60;1.00;;;;;;6335241;27;20251;-53
2022/10/07 10:52:25;;;;;;;7.50;3.37;;;17.70;1.00;;;;;;6320452;27;20251;-55
2022/10/07 10:55:42;;;;;;;4.00;3.03;;;17.60;1.00;;;;;;6330455;27;20597;-55
2022/10/07 10:58:57;;;;;;;4.53;3.10;;;17.60;1.00;;;;;;6331730;27;20228;-53
2022/10/07 11:02:20;;;;;;;5.50;3.40;;;17.70;1.00;;;;;;6332105;27;20366;-54
2022/10/07 11:05:25;;;;;;;5.80;3.17;;;17.80;1.00;;;;;;6330313;27;20231;-55
2022/10/07 11:08:31;;;;;;;4.03;3.00;;;17.80;1.00;;;;;;6322953;27;20470;-53
2022/10/07 11:11:42;;;;;;;5.13;3.30;;;17.80;1.00;;;;;;6333923;27;20427;-53
2022/10/07 11:14:50;;;;;;;5.63;3.10;;;17.80;1.00;;;;;;6334835;27;20247;-53
2022/10/07 11:18:07;;;;;;;3.63;3.43;;;17.70;1.00;;;;;;6333460;27;20239;-54
2022/10/07 11:21:15;;;;;;;3.47;3.17;;;17.80;1.00;;;;;;6335810;27;20328;-54
2022/10/07 11:24:23;;;;;;;3.73;3.27;;;17.90;1.00;;;;;;6333642;27;20587;-53
2022/10/07 11:27:27;;;;;;;5.00;3.30;;;17.90;1.00;;;;;;6324355;27;20227;-54
2022/10/07 11:30:41;;;;;;;3.07;2.87;;;18.10;1.00;;;;;;6330730;27;20358;-52
2022/10/07 11:33:50;;;;;;;3.27;3.07;;;18.10;1.00;;;;;;6334189;27;20236;-53
2022/10/07 11:36:58;;;;;;;8.00;3.00;;;18.10;1.00;;;;;;6335537;27;20715;-54
2022/10/07 11:40:04;;;;;;;4.67;2.97;;;18.20;1.00;;;;;;6324417;27;20461;-55
2022/10/07 11:43:14;;;;;;;5.93;3.40;;;18.20;1.00;;;;;;6312935;27;20346;-53
2022/10/07 11:46:22;;;;;;;3.43;3.13;;;18.30;1.00;;;;;;6335446;27;20740;-54
2022/10/07 11:49:31;;;;;;;4.23;2.77;;;18.30;1.00;;;;;;6335368;27;20552;-54
2022/10/07 11:52:40;;;;;;;3.83;2.73;;;18.40;1.00;;;;;;6327643;27;20254;-54
2022/10/07 11:55:44;;;;;;;4.63;3.20;;;18.50;1.00;;;;;;6334473;27;20236;-54
2022/10/07 11:58:59;;;;;;;6.80;3.07;;;18.30;1.00;;;;;;6328755;27;20220;-53
2022/10/07 12:02:05;;;;;;;4.83;3.20;;;18.40;1.00;;;;;;6321267;27;20252;-52
2022/10/07 12:06:04;;;;;;;4.33;2.80;;;18.50;1.00;;;;;;6327763;27;20290;-55
2022/10/07 12:09:41;;;;;;;5.17;3.20;;;18.50;1.00;;;;;;6332228;27;20250;-54
2022/10/07 12:12:49;;;;;;;4.57;2.77;;;18.60;1.00;;;;;;6322780;27;20225;-53
2022/10/07 12:15:52;;;;;;;5.27;2.77;;;18.60;1.00;;;;;;6326233;27;20238;-55
2022/10/07 12:19:16;;;;;;;3.20;2.90;;;18.70;1.00;;;;;;6332835;27;20246;-55
2022/10/07 12:22:26;;;;;;;3.03;2.70;;;18.60;1.00;;;;;;6327360;27;20239;-55
2022/10/07 12:25:31;;;;;;;3.03;2.80;;;18.60;1.00;;;;;;6325534;28;20251;-52
2022/10/07 12:28:46;;;;;;;3.17;2.80;;;18.70;1.00;;;;;;6331084;27;20228;-53
2022/10/07 12:31:49;;;;;;;2.80;2.57;;;18.80;1.00;;;;;;6332849;27;20605;-53
2022/10/07 12:34:51;;;;;;;2.50;2.40;;;18.80;1.00;;;;;;6333108;27;20727;-54
2022/10/07 12:38:03;;;;;;;3.10;2.90;;;18.80;1.00;;;;;;6330139;27;20244;-54
2022/10/07 12:41:23;;;;;;;4.27;2.87;;;18.80;1.00;;;;;;6331727;27;20244;-52
2022/10/07 12:44:31;;;;;;;2.97;2.70;;;18.70;1.00;;;;;;6333897;27;20282;-54
2022/10/07 12:47:34;;;;;;;4.40;2.77;;;18.70;1.00;;;;;;6337347;27;20727;-54
2022/10/07 12:50:39;;;;;;;7.73;3.07;;;18.80;1.00;;;;;;6327252;27;20232;-54
2022/10/07 12:53:44;;;;;;;2.90;2.70;;;18.80;1.00;;;;;;6333009;27;20266;-55
2022/10/07 12:56:48;;;;;;;3.40;3.00;;;18.70;1.00;;;;;;6338068;27;20920;-53
2022/10/07 13:00:02;;;;;;;3.43;2.80;;;18.60;1.00;;;;;;6333624;27;20247;-53
2022/10/07 13:03:37;;;;;;;2.90;2.70;;;18.70;1.00;;;;;;6333343;27;20611;-54
2022/10/07 13:07:25;;;;;;;5.67;2.87;;;18.70;1.00;;;;;;6333537;27;20232;-52
2022/10/07 13:10:46;;;;;;;3.00;2.80;;;18.80;1.00;;;;;;6322388;27;20716;-55
2022/10/07 13:13:57;;;;;;;3.20;2.90;;;18.80;1.00;;;;;;6331674;27;20235;-54
2022/10/07 13:17:12;;;;;;;3.40;3.20;;;18.80;1.00;;;;;;6331462;27;20754;-54
2022/10/07 13:20:35;;;;;;;4.83;2.93;;;18.90;1.00;;;;;;6328623;27;20234;-52
2022/10/07 13:23:38;;;;;;;4.50;3.13;;;18.90;1.00;;;;;;6333684;27;20423;-53
2022/10/07 13:26:44;;;;;;;2.80;2.60;;;19.00;1.00;;;;;;6332202;27;20236;-55
2022/10/07 13:29:47;;;;;;;4.13;3.03;;;19.00;1.00;;;;;;6332049;27;20243;-54
2022/10/07 13:32:50;;;;;;;6.27;3.37;;;18.90;1.00;;;;;;6332156;27;20243;-53
2022/10/07 13:36:07;;;;;;;5.07;2.80;;;18.90;1.00;;;;;;6330999;28;20730;-53
2022/10/07 13:39:12;;;;;;;3.60;3.17;;;18.90;1.00;;;;;;6324267;27;20413;-54
2022/10/07 13:42:17;;;;;;;3.50;2.80;;;18.80;1.00;;;;;;6326947;27;20251;-53
2022/10/07 13:45:23;;;;;;;6.97;2.93;;;18.80;1.00;;;;;;6328412;27;20737;-53
2022/10/07 13:48:31;;;;;;;4.90;3.20;;;18.80;1.00;;;;;;6332920;27;20235;-54
2022/10/07 13:51:36;;;;;;;9.07;3.40;;;18.90;1.00;;;;;;6329774;27;20478;-54
2022/10/07 13:54:38;;;;;;;3.80;2.53;;;18.90;1.00;;;;;;6329143;27;20224;-53
2022/10/07 13:57:43;;;;;;;5.73;3.00;;;18.80;1.00;;;;;;6333834;27;20246;-54
2022/10/07 14:00:48;;;;;;;2.73;2.63;;;18.70;1.00;;;;;;6337953;27;20281;-53
2022/10/07 14:04:10;;;;;;;2.50;2.37;;;18.80;1.00;;;;;;6335073;27;20540;-53
2022/10/07 14:07:18;;;;;;;3.80;2.80;;;18.80;1.00;;;;;;6329124;27;20318;-54
2022/10/07 14:10:23;;;;;;;3.37;2.60;;;18.70;1.00;;;;;;6333975;27;20236;-53
2022/10/07 14:13:28;;;;;;;3.23;2.53;;;18.60;1.00;;;;;;6332770;27;20236;-54
2022/10/07 14:16:31;;;;;;;6.43;2.87;;;18.70;1.00;;;;;;6335922;27;20610;-53
2022/10/07 14:19:34;;;;;;;5.17;2.70;;;18.70;1.00;;;;;;6331033;27;20239;-53
2022/10/07 14:22:39;;;;;;;4.50;3.07;;;18.60;1.00;;;;;;6334020;27;20374;-54
2022/10/07 14:25:53;;;;;;;2.90;2.63;;;18.60;1.00;;;;;;6326991;27;20235;-54
2022/10/07 14:28:57;;;;;;;2.83;2.63;;;18.60;1.00;;;;;;6334325;27;20390;-53
2022/10/07 14:35:39;;;;;;;4.17;2.90;;;18.40;1.00;;;;;;6336090;27;20736;-55
2022/10/07 14:38:42;;;;;;;4.97;3.17;;;18.30;1.00;;;;;;6332805;27;20236;-55
2022/10/07 14:41:45;;;;;;;3.03;2.90;;;18.30;1.00;;;;;;6332773;27;20718;-53
2022/10/07 14:44:51;;;;;;;5.40;2.33;;;18.30;1.00;;;;;;6340736;27;20260;-53
2022/10/07 14:47:54;;;;;;;4.57;2.73;;;18.20;1.00;;;;;;6337380;27;20366;-53
2022/10/07 14:50:56;;;;;;;5.03;3.13;;;18.10;1.00;;;;;;6336897;27;20239;-54
2022/10/07 14:54:03;;;;;;;2.93;2.60;;;18.00;1.00;;;;;;6331555;27;20600;-53
2022/10/07 14:57:06;;;;;;;2.93;2.67;;;17.80;1.00;;;;;;6327079;27;20600;-53
2022/10/07 15:00:16;;;;;;;3.03;2.70;;;17.60;1.00;;;;;;6322498;27;20612;-54
2022/10/07 15:03:19;;;;;;;3.07;2.63;;;17.50;1.00;;;;;;6335029;27;20346;-53
2022/10/07 15:06:22;;;;;;;2.70;2.50;;;17.40;1.00;;;;;;6341715;27;20678;-53
2022/10/07 15:09:24;;;;;;;3.63;3.33;;;17.40;1.00;;;;;;6332357;27;20258;-53
2022/10/07 15:12:28;;;;;;;3.43;3.17;;;17.40;1.00;;;;;;6335161;27;20301;-53
2022/10/07 15:15:32;;;;;;;2.97;2.77;;;17.20;1.00;;;;;;6329652;27;20596;-52
2022/10/07 15:18:34;;;;;;;4.33;2.70;;;17.10;1.00;;;;;;6332404;27;20224;-55
2022/10/07 15:21:44;;;;;;;6.63;2.80;;;17.10;1.00;;;;;;6335092;27;20654;-53
2022/10/07 15:24:46;;;;;;;3.43;3.20;;;16.90;1.00;;;;;;6327615;27;20232;-54
2022/10/07 15:27:49;;;;;;;3.43;3.20;;;16.80;1.00;;;;;;6332741;27;20232;-54
2022/10/07 15:31:01;;;;;;;3.23;2.90;;;16.70;1.00;;;;;;6334724;27;20243;-55
2022/10/07 15:34:05;;;;;;;2.47;2.37;;;16.60;1.00;;;;;;6342396;27;20464;-53
2022/10/07 15:37:08;;;;;;;2.70;2.60;;;16.50;1.00;;;;;;6335115;27;20246;-53
2022/10/07 15:40:11;;;;;;;6.90;2.87;;;16.40;1.00;;;;;;6334055;27;20228;-54
2022/10/07 15:43:14;;;;;;;5.30;3.03;;;16.40;1.00;;;;;;6327754;27;20259;-54
2022/10/07 15:46:18;;;;;;;2.67;2.57;;;16.40;1.00;;;;;;6334134;27;20224;-53
2022/10/07 15:49:21;;;;;;;3.03;2.93;;;16.30;1.00;;;;;;6329758;27;20243;-53
2022/10/07 15:52:24;;;;;;;4.37;2.83;;;16.20;1.00;;;;;;6330465;27;20529;-55
2022/10/07 15:55:27;;;;;;;3.10;2.90;;;16.10;1.00;;;;;;6332870;27;20228;-55
2022/10/07 15:58:30;;;;;;;3.40;3.10;;;16.10;1.00;;;;;;6333634;27;20384;-53
2022/10/07 16:01:35;;;;;;;3.00;2.83;;;16.00;1.00;;;;;;6336330;27;20631;-54
2022/10/07 16:04:41;;;;;;;4.17;2.87;;;16.00;1.00;;;;;;6324948;27;20670;-52
2022/10/07 16:07:44;;;;;;;4.00;3.00;;;15.90;1.00;;;;;;6333679;27;20595;-55
2022/10/07 16:10:47;;;;;;;3.10;2.90;;;15.80;1.00;;;;;;6333668;27;20700;-54
2022/10/07 16:13:50;;;;;;;3.53;2.90;;;15.80;1.00;;;;;;6332283;27;20242;-54
2022/10/07 16:16:54;;;;;;;3.07;2.97;;;15.70;1.00;;;;;;6333633;27;20758;-54
2022/10/07 16:19:59;;;;;;;4.53;4.23;;;15.60;1.00;;;;;;6331420;27;20413;-55
2022/10/07 16:23:02;;;;;;;6.43;4.73;;;15.50;1.00;;;;;;6333475;27;20402;-54
2022/10/07 16:26:05;;;;;;;5.10;4.60;;;15.40;1.00;;;;;;6332988;27;20243;-54
2022/10/07 16:32:35;;;;;;;6.10;5.60;;;15.20;1.00;;;;;;6326015;27;20227;-55
2022/10/07 16:35:38;;;;;;;6.13;5.53;;;15.10;1.00;;;;;;6331348;27;20338;-53
2022/10/07 16:38:41;;;;;;;7.07;6.37;;;15.00;1.00;;;;;;6331070;27;20228;-54
2022/10/07 16:41:45;;;;;;;6.23;5.77;;;14.90;1.00;;;;;;6332551;27;20240;-54
2022/10/07 16:44:49;;;;;;;7.27;6.10;;;14.70;1.00;;;;;;6332665;27;20224;-53
2022/10/07 16:47:54;;;;;;;8.47;7.07;;;14.60;1.00;;;;;;6332339;27;20236;-54